Time;durP1;ratioP1;P1;durP2;ratioP2;P2;SDS_P1;SDS_P2;PMS_P1;PMS_P2;Temp;Humidity;BMP_temperature;BMP_pressure;BME280_temperature;BME280_humidity;BME280_pressure;Samples;Min_cycle;Max_cycle;Signal;HPM_P1;HPM_P2
2021/01/23 00:00:09;;;;;;;22.13;19.83;;;8.00;94.20;;;;;;5114905;28;20622;-60
2021/01/23 00:02:36;;;;;;;20.60;18.23;;;8.00;94.50;;;;;;5115169;28;20656;-60
2021/01/23 00:05:03;;;;;;;20.63;17.50;;;8.00;94.50;;;;;;5115017;28;20695;-62
2021/01/23 00:07:30;;;;;;;19.97;17.90;;;8.00;94.40;;;;;;5115038;28;21161;-61
2021/01/23 00:09:57;;;;;;;19.20;17.30;;;8.00;94.40;;;;;;5096764;28;20668;-60
2021/01/23 00:12:24;;;;;;;20.17;16.57;;;8.00;94.40;;;;;;5115015;28;20657;-59
2021/01/23 00:14:51;;;;;;;22.37;19.97;;;8.00;94.40;;;;;;5116185;28;20675;-59
2021/01/23 00:17:18;;;;;;;19.53;17.57;;;8.10;94.50;;;;;;5118028;28;20622;-59
2021/01/23 00:19:45;;;;;;;21.07;18.87;;;8.10;94.40;;;;;;5115813;28;20707;-60
2021/01/23 00:22:12;;;;;;;19.40;16.87;;;8.10;94.30;;;;;;5116196;28;20838;-60
2021/01/23 00:24:39;;;;;;;19.10;14.93;;;8.10;94.30;;;;;;5113808;28;20772;-61
2021/01/23 00:27:05;;;;;;;22.27;20.00;;;8.00;94.20;;;;;;5114197;28;20717;-59
2021/01/23 00:29:32;;;;;;;19.33;17.40;;;7.90;94.40;;;;;;5114368;28;20995;-59
2021/01/23 00:31:59;;;;;;;21.97;19.47;;;7.80;94.40;;;;;;5113917;28;20626;-60
2021/01/23 00:34:26;;;;;;;22.20;19.70;;;7.80;94.60;;;;;;5113792;28;20686;-61
2021/01/23 00:36:53;;;;;;;22.50;17.53;;;7.90;94.60;;;;;;5113806;28;20633;-60
2021/01/23 00:39:20;;;;;;;22.57;19.73;;;7.90;94.60;;;;;;5114051;28;20680;-61
2021/01/23 00:41:47;;;;;;;20.97;18.47;;;7.90;94.60;;;;;;5113930;28;20661;-62
2021/01/23 00:44:14;;;;;;;22.43;19.27;;;7.90;94.50;;;;;;5113000;28;20686;-60
2021/01/23 00:46:40;;;;;;;24.73;21.20;;;8.00;94.40;;;;;;5113809;28;20665;-62
2021/01/23 00:49:07;;;;;;;21.87;19.37;;;8.10;94.40;;;;;;5096019;28;20744;-60
2021/01/23 00:51:35;;;;;;;24.10;19.03;;;8.10;94.30;;;;;;5113394;28;20619;-58
2021/01/23 00:54:02;;;;;;;23.10;20.63;;;8.10;94.20;;;;;;5113976;28;20610;-58
2021/01/23 00:56:29;;;;;;;23.17;20.73;;;8.10;94.10;;;;;;5113602;28;20965;-59
2021/01/23 00:58:56;;;;;;;25.60;20.50;;;8.10;94.10;;;;;;5113438;28;20987;-59
2021/01/23 01:01:22;;;;;;;20.13;18.03;;;8.10;94.20;;;;;;5103835;28;20651;-59
2021/01/23 01:03:49;;;;;;;21.03;18.83;;;8.10;94.10;;;;;;5093394;28;20698;-59
2021/01/23 01:06:16;;;;;;;22.70;20.23;;;8.10;94.00;;;;;;5093132;28;20687;-61
2021/01/23 01:08:44;;;;;;;22.77;19.70;;;8.10;94.10;;;;;;5093527;28;20626;-60
2021/01/23 01:11:10;;;;;;;20.93;18.70;;;8.20;94.20;;;;;;5093312;28;20635;-60
2021/01/23 01:13:37;;;;;;;19.67;17.10;;;8.20;94.10;;;;;;5100407;28;20674;-60
2021/01/23 01:16:04;;;;;;;19.47;17.60;;;8.30;94.00;;;;;;5113099;28;20685;-61
2021/01/23 01:18:31;;;;;;;20.60;17.73;;;8.30;93.90;;;;;;5094464;28;20622;-61
2021/01/23 01:20:58;;;;;;;19.20;17.10;;;8.20;93.80;;;;;;5113174;28;20661;-58
2021/01/23 01:23:25;;;;;;;22.23;20.03;;;8.20;93.90;;;;;;5112520;28;20627;-60
2021/01/23 01:25:52;;;;;;;20.73;18.53;;;8.20;93.70;;;;;;5112164;28;20683;-58
2021/01/23 01:28:19;;;;;;;17.43;15.60;;;8.10;93.60;;;;;;5112819;28;20976;-59
2021/01/23 01:30:46;;;;;;;19.53;17.43;;;8.00;93.90;;;;;;5113025;28;20634;-59
2021/01/23 01:33:13;;;;;;;21.07;18.83;;;8.00;94.00;;;;;;5112898;28;20704;-60
2021/01/23 01:35:40;;;;;;;18.40;16.50;;;8.00;94.20;;;;;;5112397;28;20715;-59
2021/01/23 01:38:07;;;;;;;21.13;18.93;;;8.10;94.10;;;;;;5112586;28;20672;-59
2021/01/23 01:40:34;;;;;;;20.47;18.30;;;8.00;93.90;;;;;;5111665;28;20665;-60
2021/01/23 01:43:02;;;;;;;19.30;17.20;;;8.00;94.10;;;;;;5112358;28;20714;-59
2021/01/23 01:45:28;;;;;;;18.30;16.40;;;8.10;94.10;;;;;;5112427;28;20669;-60
2021/01/23 01:47:55;;;;;;;18.00;15.67;;;8.10;94.10;;;;;;5112560;28;20653;-60
2021/01/23 01:50:22;;;;;;;16.70;15.00;;;8.00;93.80;;;;;;5112181;28;20623;-60
2021/01/23 01:52:50;;;;;;;16.37;14.87;;;8.00;93.90;;;;;;5094539;28;20706;-59
2021/01/23 01:55:18;;;;;;;14.90;13.03;;;8.00;93.90;;;;;;5094010;28;21247;-61
2021/01/23 01:57:45;;;;;;;14.37;12.70;;;7.90;93.70;;;;;;5112585;28;21066;-60
2021/01/23 02:00:14;;;;;;;15.47;13.87;;;7.90;94.10;;;;;;5112339;28;20625;-60
2021/01/23 02:03:24;;;;;;;21.70;14.20;;;7.80;94.30;;;;;;5111700;28;20658;-60
2021/01/23 02:05:55;;;;;;;13.87;12.53;;;7.90;94.30;;;;;;5112195;28;20654;-59
2021/01/23 02:08:28;;;;;;;15.47;13.90;;;8.00;94.10;;;;;;5093970;28;20638;-59
2021/01/23 02:11:03;;;;;;;14.10;12.60;;;7.90;94.10;;;;;;5112437;28;20622;-59
2021/01/23 02:13:30;;;;;;;12.77;11.37;;;7.80;94.10;;;;;;5112755;28;21162;-59
2021/01/23 02:16:01;;;;;;;12.57;11.03;;;7.90;94.30;;;;;;5111702;28;21285;-59
2021/01/23 02:18:31;;;;;;;10.60;9.50;;;7.90;94.20;;;;;;5111011;28;20651;-60
2021/01/23 02:21:35;;;;;;;9.73;7.47;;;7.90;93.90;;;;;;5112093;28;20629;-59
2021/01/23 02:24:03;;;;;;;8.77;7.70;;;7.90;93.70;;;;;;5029058;28;20752;-58
2021/01/23 02:26:36;;;;;;;9.33;8.43;;;7.80;93.50;;;;;;5028729;28;21258;-58
2021/01/23 02:29:07;;;;;;;9.97;9.00;;;7.70;93.80;;;;;;5072002;28;21029;-58
2021/01/23 02:31:40;;;;;;;10.80;8.13;;;7.70;93.80;;;;;;5111975;28;20629;-59
2021/01/23 02:34:07;;;;;;;7.90;7.00;;;7.70;93.90;;;;;;5111359;28;20699;-59
2021/01/23 02:36:34;;;;;;;7.57;6.47;;;7.60;93.70;;;;;;5093056;28;20974;-58
2021/01/23 02:39:02;;;;;;;8.73;7.93;;;7.60;94.00;;;;;;5111448;28;21013;-58
2021/01/23 02:41:29;;;;;;;10.60;7.97;;;7.60;94.00;;;;;;5111451;28;20658;-59
2021/01/23 02:43:55;;;;;;;7.00;6.40;;;7.60;93.50;;;;;;5110706;28;20694;-60
2021/01/23 02:46:22;;;;;;;8.87;7.20;;;7.60;93.60;;;;;;5111606;28;20795;-59
2021/01/23 02:48:50;;;;;;;7.20;6.20;;;7.60;93.40;;;;;;5093005;28;20695;-60
2021/01/23 02:51:21;;;;;;;8.10;7.00;;;7.60;93.30;;;;;;5111256;28;20661;-60
2021/01/23 02:53:49;;;;;;;7.70;5.60;;;7.60;93.40;;;;;;5111287;28;20983;-60
2021/01/23 02:56:17;;;;;;;7.33;6.60;;;7.60;93.20;;;;;;5111589;28;20694;-60
2021/01/23 02:58:45;;;;;;;6.43;5.83;;;7.60;92.90;;;;;;5111349;28;20683;-60
2021/01/23 03:01:12;;;;;;;7.70;6.50;;;7.70;92.90;;;;;;5087748;28;20940;-61
2021/01/23 03:03:38;;;;;;;8.40;6.63;;;7.70;92.80;;;;;;5091293;28;20662;-61
2021/01/23 03:06:06;;;;;;;6.97;6.40;;;7.80;92.80;;;;;;5091142;28;20749;-61
2021/01/23 03:08:33;;;;;;;8.40;6.30;;;7.80;92.50;;;;;;5091169;28;20981;-61
2021/01/23 03:11:00;;;;;;;9.30;8.40;;;8.00;92.60;;;;;;5093092;28;20624;-59
2021/01/23 03:13:27;;;;;;;7.33;6.63;;;8.00;92.50;;;;;;5112589;28;20619;-59
2021/01/23 03:15:53;;;;;;;8.80;6.87;;;8.10;92.40;;;;;;5115400;28;20662;-59
2021/01/23 03:18:20;;;;;;;7.63;6.93;;;8.20;92.20;;;;;;5115354;28;21030;-58
2021/01/23 03:20:47;;;;;;;7.47;6.77;;;8.30;92.20;;;;;;5115502;28;20981;-60
2021/01/23 03:23:15;;;;;;;11.10;8.37;;;8.30;92.00;;;;;;5115219;28;20650;-59
2021/01/23 03:25:41;;;;;;;8.33;7.47;;;8.30;91.90;;;;;;5114970;28;21093;-57
2021/01/23 03:28:08;;;;;;;8.33;7.47;;;8.30;91.90;;;;;;5114900;28;20660;-59
2021/01/23 03:30:35;;;;;;;7.70;6.33;;;8.30;91.80;;;;;;5114877;28;20665;-57
2021/01/23 03:33:02;;;;;;;7.03;6.37;;;8.30;91.80;;;;;;5115035;28;20633;-59
2021/01/23 03:35:29;;;;;;;6.50;5.90;;;8.30;91.90;;;;;;5114468;28;20665;-59
2021/01/23 03:37:56;;;;;;;8.97;6.90;;;8.30;91.80;;;;;;5096823;28;20626;-61
2021/01/23 03:40:24;;;;;;;7.57;6.27;;;8.30;91.70;;;;;;5114484;28;20630;-59
2021/01/23 03:42:51;;;;;;;9.33;6.70;;;8.30;91.70;;;;;;5115009;28;20661;-59
2021/01/23 03:45:17;;;;;;;8.10;7.30;;;8.20;91.70;;;;;;5114562;28;20795;-59
2021/01/23 03:47:44;;;;;;;9.83;8.17;;;8.20;91.80;;;;;;5114656;28;20632;-61
2021/01/23 03:50:12;;;;;;;8.27;7.17;;;8.20;91.90;;;;;;5096850;28;20670;-59
2021/01/23 03:52:38;;;;;;;8.30;7.60;;;8.20;92.00;;;;;;5114924;28;20653;-60
2021/01/23 03:55:07;;;;;;;10.13;9.13;;;8.20;92.00;;;;;;5113933;28;20694;-59
2021/01/23 03:57:34;;;;;;;8.37;7.53;;;8.30;92.00;;;;;;5113200;28;20657;-58
2021/01/23 04:00:01;;;;;;;8.90;8.10;;;8.30;91.90;;;;;;5114264;28;20634;-59
2021/01/23 04:02:28;;;;;;;7.83;7.03;;;8.30;91.90;;;;;;5115187;28;20646;-59
2021/01/23 04:04:55;;;;;;;9.43;7.77;;;8.30;91.80;;;;;;5114429;28;21079;-59
2021/01/23 04:07:21;;;;;;;12.83;9.93;;;8.30;91.70;;;;;;5114025;28;21208;-59
2021/01/23 04:09:48;;;;;;;15.73;11.00;;;8.20;91.70;;;;;;5114200;28;20654;-59
2021/01/23 04:12:15;;;;;;;8.93;8.03;;;8.20;91.80;;;;;;5114402;28;20665;-59
2021/01/23 04:14:42;;;;;;;9.57;8.23;;;8.20;91.80;;;;;;5095517;28;20993;-57
2021/01/23 04:17:09;;;;;;;9.93;8.90;;;8.20;91.70;;;;;;5114076;28;20646;-58
2021/01/23 04:19:36;;;;;;;8.47;7.57;;;8.20;91.70;;;;;;5114561;28;21208;-58
2021/01/23 04:22:03;;;;;;;9.80;7.47;;;8.20;91.60;;;;;;5114316;28;20615;-59
2021/01/23 04:24:30;;;;;;;8.37;7.40;;;8.20;91.70;;;;;;5113997;28;20682;-59
2021/01/23 04:26:57;;;;;;;8.50;7.10;;;8.20;91.70;;;;;;5112657;28;20668;-58
2021/01/23 04:29:23;;;;;;;9.70;8.67;;;8.30;91.70;;;;;;5113858;28;20716;-59
2021/01/23 04:31:51;;;;;;;8.37;6.53;;;8.20;91.50;;;;;;5113734;28;21035;-58
2021/01/23 04:34:18;;;;;;;7.90;6.83;;;8.20;91.50;;;;;;5113635;28;20649;-59
2021/01/23 04:36:44;;;;;;;7.90;6.37;;;8.20;91.50;;;;;;5126608;22;20787;-52
2021/01/23 04:39:11;;;;;;;8.17;7.37;;;8.20;91.60;;;;;;5094596;28;20622;-52
2021/01/23 04:41:38;;;;;;;9.93;7.80;;;8.20;91.60;;;;;;5113357;28;20655;-52
2021/01/23 04:44:05;;;;;;;11.30;6.93;;;8.10;91.70;;;;;;5112563;28;20634;-50
2021/01/23 04:46:33;;;;;;;6.20;5.70;;;8.20;91.70;;;;;;5112091;28;20697;-53
2021/01/23 04:49:01;;;;;;;7.37;6.67;;;8.20;91.60;;;;;;5111594;28;20623;-51
2021/01/23 04:51:28;;;;;;;7.27;6.57;;;8.20;91.50;;;;;;5112345;28;20673;-51
2021/01/23 04:53:55;;;;;;;6.47;5.77;;;8.20;91.50;;;;;;5111726;28;21041;-51
2021/01/23 04:56:22;;;;;;;7.23;6.53;;;8.20;91.40;;;;;;5112199;28;20693;-50
2021/01/23 04:58:48;;;;;;;7.57;5.80;;;8.20;91.40;;;;;;5111565;28;21212;-51
2021/01/23 05:01:15;;;;;;;6.27;5.23;;;8.20;91.30;;;;;;5111358;27;20673;-49
2021/01/23 05:03:55;;;;;;;6.03;5.50;;;8.10;91.20;;;;;;5111788;28;21189;-49
2021/01/23 05:06:23;;;;;;;5.73;5.20;;;8.00;91.30;;;;;;5111282;28;20694;-50
2021/01/23 05:08:50;;;;;;;7.00;4.87;;;8.00;91.50;;;;;;5111528;28;20647;-50
2021/01/23 05:11:16;;;;;;;5.60;5.07;;;8.00;91.50;;;;;;5111562;28;20650;-51
2021/01/23 05:13:44;;;;;;;7.63;5.57;;;8.00;91.50;;;;;;5111346;28;20626;-50
2021/01/23 05:16:24;;;;;;;8.83;5.10;;;8.00;91.50;;;;;;5111437;28;20662;-50
2021/01/23 05:18:57;;;;;;;7.90;5.40;;;8.00;91.40;;;;;;5110130;28;20634;-49
2021/01/23 05:21:25;;;;;;;6.50;5.60;;;8.00;91.40;;;;;;5111043;28;20658;-51
2021/01/23 05:24:03;;;;;;;5.60;5.10;;;8.00;91.50;;;;;;5110916;28;21022;-52
2021/01/23 05:26:29;;;;;;;5.83;5.30;;;7.90;91.50;;;;;;5111207;28;20727;-51
2021/01/23 05:29:06;;;;;;;7.03;6.43;;;7.70;91.50;;;;;;5111253;28;20632;-51
2021/01/23 05:31:33;;;;;;;8.10;5.57;;;7.70;91.90;;;;;;5111132;28;20660;-52
2021/01/23 05:33:59;;;;;;;7.93;5.33;;;7.60;92.10;;;;;;5111559;28;20656;-50
2021/01/23 05:36:27;;;;;;;5.80;5.27;;;7.50;92.30;;;;;;5110285;28;20700;-50
2021/01/23 05:38:54;;;;;;;8.27;7.30;;;7.40;92.60;;;;;;5110653;28;21160;-51
2021/01/23 05:41:20;;;;;;;8.70;7.50;;;7.40;92.90;;;;;;5111027;28;21262;-51
2021/01/23 05:43:48;;;;;;;6.30;5.70;;;7.30;92.80;;;;;;5110374;28;20664;-51
2021/01/23 05:46:16;;;;;;;8.03;7.23;;;7.40;93.00;;;;;;5111055;28;20694;-50
2021/01/23 05:48:43;;;;;;;7.87;6.47;;;7.40;93.00;;;;;;5110892;28;20657;-51
2021/01/23 05:51:10;;;;;;;6.60;6.00;;;7.40;93.00;;;;;;5110881;28;20653;-51
2021/01/23 05:53:38;;;;;;;6.40;5.80;;;7.40;93.00;;;;;;5110790;28;20652;-50
2021/01/23 05:56:05;;;;;;;9.43;6.60;;;7.40;93.00;;;;;;5110948;28;20676;-51
2021/01/23 05:58:32;;;;;;;7.13;6.43;;;7.30;93.00;;;;;;5110694;28;20654;-50
2021/01/23 06:01:00;;;;;;;7.33;6.70;;;7.30;93.10;;;;;;5110833;28;20664;-50
2021/01/23 06:03:27;;;;;;;8.03;6.87;;;7.30;93.20;;;;;;5110346;28;20621;-50
2021/01/23 06:05:55;;;;;;;7.00;6.30;;;7.30;93.20;;;;;;5110763;28;20725;-50
2021/01/23 06:08:38;;;;;;;7.47;6.70;;;7.20;93.30;;;;;;5110256;28;20656;-50
2021/01/23 06:11:05;;;;;;;8.00;6.30;;;7.20;93.30;;;;;;5109786;27;20669;-51
2021/01/23 06:13:39;;;;;;;7.80;7.00;;;7.20;93.30;;;;;;5110162;28;20728;-50
2021/01/23 06:16:06;;;;;;;6.87;6.10;;;7.10;93.40;;;;;;5110739;28;20649;-50
2021/01/23 06:18:33;;;;;;;9.50;7.50;;;7.10;93.50;;;;;;5110484;28;20648;-50
2021/01/23 06:21:01;;;;;;;6.23;5.63;;;7.10;93.50;;;;;;5110468;28;20640;-50
2021/01/23 06:23:50;;;;;;;7.73;6.80;;;7.00;93.40;;;;;;5110135;28;21196;-50
2021/01/23 06:26:18;;;;;;;8.23;6.90;;;7.00;93.30;;;;;;5101468;28;20697;-50
2021/01/23 06:28:56;;;;;;;7.33;6.60;;;6.90;93.50;;;;;;5108624;28;20656;-49
2021/01/23 06:31:36;;;;;;;7.93;6.87;;;6.90;93.60;;;;;;5096291;28;20658;-51
2021/01/23 06:34:24;;;;;;;9.37;7.90;;;6.90;93.70;;;;;;5089581;28;20662;-51
2021/01/23 06:37:12;;;;;;;11.23;6.40;;;6.80;93.80;;;;;;5102375;28;20673;-50
2021/01/23 06:40:01;;;;;;;8.23;7.43;;;6.80;93.80;;;;;;5090129;28;20624;-51
2021/01/23 06:42:27;;;;;;;9.50;8.50;;;6.80;94.10;;;;;;5110122;28;20628;-51
2021/01/23 06:44:54;;;;;;;9.60;7.73;;;6.70;94.10;;;;;;5109222;28;20688;-50
2021/01/23 06:47:21;;;;;;;8.50;7.70;;;6.70;94.20;;;;;;5109780;28;20689;-50
2021/01/23 06:49:47;;;;;;;8.53;7.63;;;6.60;94.20;;;;;;5115970;28;20789;-51
2021/01/23 06:52:14;;;;;;;9.00;7.87;;;6.60;94.40;;;;;;5098422;28;20693;-50
2021/01/23 06:54:45;;;;;;;9.93;7.90;;;6.60;94.50;;;;;;5108963;28;21135;-50
2021/01/23 06:57:12;;;;;;;9.47;8.57;;;6.60;94.70;;;;;;5116679;27;20624;-51
2021/01/23 06:59:39;;;;;;;12.33;9.77;;;6.60;94.90;;;;;;5116733;28;20912;-51
2021/01/23 07:02:07;;;;;;;10.27;8.20;;;6.70;95.10;;;;;;5116178;27;20625;-51
2021/01/23 07:04:34;;;;;;;10.60;8.03;;;6.60;95.00;;;;;;5116527;28;20661;-50
2021/01/23 07:07:05;;;;;;;12.20;9.37;;;6.60;95.00;;;;;;5116017;28;20701;-50
2021/01/23 07:09:45;;;;;;;13.10;10.27;;;6.60;95.20;;;;;;5116328;28;20650;-52
2021/01/23 07:12:13;;;;;;;13.80;10.90;;;6.70;95.30;;;;;;5115704;28;20696;-50
2021/01/23 07:14:39;;;;;;;12.60;10.57;;;6.70;95.30;;;;;;5116441;27;21034;-50
2021/01/23 07:17:13;;;;;;;10.87;9.77;;;6.70;95.30;;;;;;5116119;27;21183;-51
2021/01/23 07:19:40;;;;;;;11.50;10.17;;;6.80;95.20;;;;;;5116783;28;20660;-53
2021/01/23 07:22:07;;;;;;;9.73;7.33;;;6.90;95.30;;;;;;5116296;27;20707;-53
2021/01/23 07:24:34;;;;;;;12.63;11.27;;;6.90;95.10;;;;;;5115717;27;20669;-51
2021/01/23 07:27:00;;;;;;;14.57;11.63;;;6.70;95.10;;;;;;5115990;28;21082;-51
2021/01/23 07:29:28;;;;;;;16.67;10.90;;;6.70;95.30;;;;;;5116223;28;20744;-51
2021/01/23 07:31:55;;;;;;;12.90;11.60;;;6.70;95.40;;;;;;5105703;28;20684;-51
2021/01/23 07:34:22;;;;;;;12.93;11.17;;;6.70;95.30;;;;;;5102427;28;21172;-50
2021/01/23 07:36:48;;;;;;;15.27;11.03;;;6.70;95.30;;;;;;5114007;28;20693;-51
2021/01/23 07:39:16;;;;;;;11.77;10.57;;;6.70;95.40;;;;;;5107957;28;20678;-51
2021/01/23 07:41:47;;;;;;;8.10;7.27;;;6.80;95.40;;;;;;5109902;28;20660;-51
2021/01/23 07:44:13;;;;;;;12.83;11.53;;;6.80;95.20;;;;;;5112936;28;20780;-51
2021/01/23 07:46:42;;;;;;;10.13;8.67;;;6.70;95.30;;;;;;5103008;28;20701;-50
2021/01/23 07:49:10;;;;;;;8.93;8.00;;;6.70;95.30;;;;;;5115862;28;20649;-50
2021/01/23 07:51:37;;;;;;;12.57;11.27;;;6.60;95.30;;;;;;5116071;28;20611;-51
2021/01/23 07:54:08;;;;;;;12.30;11.03;;;6.60;95.40;;;;;;5114238;28;21207;-51
2021/01/23 07:56:34;;;;;;;16.43;10.00;;;6.60;95.50;;;;;;5110700;28;20714;-50
2021/01/23 07:59:01;;;;;;;13.80;11.93;;;6.70;95.60;;;;;;5095293;28;20625;-51
2021/01/23 08:01:28;;;;;;;13.57;10.83;;;6.70;95.50;;;;;;5091486;28;20624;-50
2021/01/23 08:03:55;;;;;;;13.13;10.53;;;6.70;95.40;;;;;;5100400;28;20659;-51
2021/01/23 08:06:22;;;;;;;14.00;12.50;;;6.70;95.30;;;;;;5100622;28;20713;-52
2021/01/23 08:08:49;;;;;;;9.17;8.33;;;6.80;95.30;;;;;;5095232;28;20650;-51
2021/01/23 08:11:38;;;;;;;13.13;11.33;;;6.70;95.30;;;;;;5112522;28;20656;-51
2021/01/23 08:14:12;;;;;;;8.73;7.00;;;6.70;95.40;;;;;;5100722;28;20667;-51
2021/01/23 08:16:56;;;;;;;10.57;9.07;;;6.70;95.40;;;;;;5103208;28;20673;-52
2021/01/23 08:19:24;;;;;;;13.87;9.43;;;6.70;95.30;;;;;;5092361;28;20657;-51
2021/01/23 08:22:06;;;;;;;13.90;11.17;;;6.70;95.80;;;;;;5095889;28;20659;-52
2021/01/23 08:24:33;;;;;;;10.60;9.60;;;6.70;95.60;;;;;;5097919;28;20652;-51
2021/01/23 08:27:01;;;;;;;12.90;11.57;;;6.70;95.30;;;;;;5110299;28;20688;-51
2021/01/23 08:29:28;;;;;;;13.00;11.73;;;6.80;95.00;;;;;;5106564;28;20711;-51
2021/01/23 08:32:01;;;;;;;10.47;9.47;;;6.70;94.90;;;;;;5094098;28;20641;-51
2021/01/23 08:34:29;;;;;;;12.37;10.40;;;6.80;94.90;;;;;;5102467;28;20658;-51
2021/01/23 08:36:56;;;;;;;14.20;12.37;;;6.80;94.90;;;;;;5091311;28;20687;-51
2021/01/23 08:39:22;;;;;;;12.17;10.50;;;6.80;94.90;;;;;;5099216;28;20649;-51
2021/01/23 08:41:49;;;;;;;14.73;11.27;;;6.90;94.90;;;;;;5111793;28;20657;-51
2021/01/23 08:44:16;;;;;;;13.20;10.70;;;7.00;94.90;;;;;;5111847;28;20613;-52
2021/01/23 08:46:43;;;;;;;12.93;9.60;;;7.00;94.70;;;;;;5111109;28;20690;-51
2021/01/23 08:49:10;;;;;;;12.03;9.37;;;7.00;94.50;;;;;;5112025;27;21261;-51
2021/01/23 08:51:37;;;;;;;10.77;9.67;;;7.10;94.30;;;;;;5111984;28;21207;-51
2021/01/23 08:54:04;;;;;;;15.93;8.03;;;7.10;94.20;;;;;;5111707;28;21036;-51
2021/01/23 08:56:31;;;;;;;14.50;8.57;;;7.20;94.00;;;;;;5111826;28;20749;-51
2021/01/23 08:58:58;;;;;;;10.43;7.80;;;7.20;93.80;;;;;;5111479;28;20639;-51
2021/01/23 09:01:25;;;;;;;10.90;7.83;;;7.30;93.70;;;;;;5111557;28;20753;-52
2021/01/23 09:03:51;;;;;;;11.20;10.10;;;7.30;93.50;;;;;;5111234;28;20625;-51
2021/01/23 09:06:18;;;;;;;11.87;10.10;;;7.40;93.60;;;;;;5110826;28;20702;-50
2021/01/23 09:08:46;;;;;;;12.17;8.80;;;7.40;93.30;;;;;;5110671;28;21134;-52
2021/01/23 09:11:13;;;;;;;14.33;9.80;;;7.40;93.30;;;;;;5092352;28;20641;-52
2021/01/23 09:13:39;;;;;;;10.10;9.10;;;7.50;93.20;;;;;;5097715;28;20662;-53
2021/01/23 09:16:06;;;;;;;12.03;8.93;;;7.50;93.10;;;;;;5107807;28;20682;-52
2021/01/23 09:18:33;;;;;;;12.90;10.20;;;7.60;93.00;;;;;;5102605;28;20716;-52
2021/01/23 09:21:00;;;;;;;9.57;8.67;;;7.60;92.70;;;;;;5098114;28;20661;-53
2021/01/23 09:23:27;;;;;;;9.00;8.10;;;7.60;92.50;;;;;;5095824;28;20755;-55
2021/01/23 09:25:54;;;;;;;8.80;8.00;;;7.60;92.50;;;;;;5091933;28;20715;-53
2021/01/23 09:28:23;;;;;;;12.77;8.70;;;7.60;92.70;;;;;;5111001;28;20654;-52
2021/01/23 09:30:49;;;;;;;10.03;8.30;;;7.60;92.70;;;;;;5107003;28;21014;-53
2021/01/23 09:33:16;;;;;;;8.07;7.27;;;7.50;92.60;;;;;;5093092;28;20625;-53
2021/01/23 09:35:43;;;;;;;6.80;6.10;;;7.50;92.80;;;;;;5091799;28;20654;-52
2021/01/23 09:38:10;;;;;;;9.07;8.10;;;7.60;93.00;;;;;;5101613;28;20645;-52
2021/01/23 09:40:36;;;;;;;8.40;6.43;;;7.60;92.90;;;;;;5090352;28;20662;-52
2021/01/23 09:43:04;;;;;;;9.03;6.93;;;7.60;92.90;;;;;;5106798;28;20661;-53
2021/01/23 09:45:31;;;;;;;10.57;8.87;;;7.50;92.70;;;;;;5109111;28;20790;-52
2021/01/23 09:47:57;;;;;;;7.57;5.47;;;7.50;93.00;;;;;;5098143;28;20697;-53
2021/01/23 09:50:24;;;;;;;7.60;6.90;;;7.50;93.40;;;;;;5100509;28;20640;-53
2021/01/23 09:52:51;;;;;;;9.07;7.60;;;7.50;93.20;;;;;;5099665;28;21043;-53
2021/01/23 09:55:18;;;;;;;8.23;7.43;;;7.50;93.50;;;;;;5103999;28;20924;-52
2021/01/23 09:57:44;;;;;;;9.53;6.40;;;7.50;93.50;;;;;;5110698;28;20750;-53
2021/01/23 10:00:13;;;;;;;9.23;7.60;;;7.50;93.50;;;;;;5101721;28;21164;-52
2021/01/23 10:02:40;;;;;;;8.97;7.70;;;7.60;93.60;;;;;;5110267;28;20645;-53
2021/01/23 10:05:08;;;;;;;13.40;7.63;;;7.60;93.40;;;;;;5107926;28;21028;-52
2021/01/23 10:07:35;;;;;;;10.03;8.70;;;7.60;93.50;;;;;;5093423;28;20749;-52
2021/01/23 10:10:02;;;;;;;9.53;7.63;;;7.60;93.40;;;;;;5098760;28;20670;-53
2021/01/23 10:12:32;;;;;;;12.50;11.20;;;7.60;93.30;;;;;;5092370;28;20664;-53
2021/01/23 10:14:59;;;;;;;11.37;8.07;;;7.60;93.20;;;;;;5108372;27;20683;-54
2021/01/23 10:17:26;;;;;;;8.77;7.97;;;7.50;93.30;;;;;;5107050;28;20667;-53
2021/01/23 10:19:53;;;;;;;8.77;7.00;;;7.50;93.40;;;;;;5089648;28;20656;-53
2021/01/23 10:22:20;;;;;;;7.60;7.00;;;7.50;93.50;;;;;;5103438;28;20728;-55
2021/01/23 10:24:47;;;;;;;9.03;8.10;;;7.40;93.60;;;;;;5109723;28;20622;-54
2021/01/23 10:27:14;;;;;;;8.40;7.37;;;7.40;93.80;;;;;;5103062;28;20731;-53
2021/01/23 10:29:40;;;;;;;10.23;8.97;;;7.30;94.00;;;;;;5100521;28;20657;-53
2021/01/23 10:32:07;;;;;;;8.40;7.60;;;7.30;93.90;;;;;;5107271;28;21032;-52
2021/01/23 10:34:35;;;;;;;11.10;10.10;;;7.30;94.10;;;;;;5092623;28;20670;-52
2021/01/23 10:37:01;;;;;;;10.03;9.03;;;7.30;93.90;;;;;;5106668;28;21055;-52
2021/01/23 10:39:28;;;;;;;9.73;8.20;;;7.40;94.00;;;;;;5109963;28;20644;-54
2021/01/23 10:41:55;;;;;;;8.43;7.53;;;7.40;94.00;;;;;;5110213;28;20641;-51
2021/01/23 10:44:22;;;;;;;11.30;9.17;;;7.50;93.90;;;;;;5109934;28;20714;-53
2021/01/23 10:46:49;;;;;;;10.17;7.83;;;7.50;93.70;;;;;;5091461;28;20749;-53
2021/01/23 10:49:15;;;;;;;9.00;7.30;;;7.50;93.70;;;;;;5096096;28;20653;-52
2021/01/23 10:51:43;;;;;;;9.03;8.07;;;7.50;93.60;;;;;;5097842;28;20670;-53
2021/01/23 10:54:10;;;;;;;9.37;8.47;;;7.50;93.60;;;;;;5088712;28;20654;-52
2021/01/23 10:56:37;;;;;;;9.70;8.37;;;7.50;93.60;;;;;;5109886;28;20681;-52
2021/01/23 10:59:03;;;;;;;11.47;9.30;;;7.60;93.60;;;;;;5109599;28;21264;-52
2021/01/23 11:01:30;;;;;;;7.63;6.77;;;7.70;93.60;;;;;;5109929;28;20623;-52
2021/01/23 11:03:57;;;;;;;8.77;7.93;;;7.70;93.70;;;;;;5109317;28;20630;-52
2021/01/23 11:06:24;;;;;;;10.50;9.53;;;7.70;93.20;;;;;;5109794;28;20732;-55
2021/01/23 11:08:51;;;;;;;21.83;7.83;;;7.70;93.30;;;;;;5090035;28;20676;-53
2021/01/23 11:11:18;;;;;;;8.07;7.37;;;7.80;93.30;;;;;;5089236;28;20647;-53
2021/01/23 11:13:45;;;;;;;7.73;6.90;;;7.90;93.10;;;;;;5104113;28;20669;-51
2021/01/23 11:16:12;;;;;;;8.30;7.10;;;7.90;93.00;;;;;;5102371;28;20668;-52
2021/01/23 11:18:39;;;;;;;8.07;6.90;;;8.00;93.10;;;;;;5089378;28;20666;-52
2021/01/23 11:21:06;;;;;;;7.20;6.60;;;8.00;93.00;;;;;;5103517;28;20659;-54
2021/01/23 11:23:32;;;;;;;9.53;6.83;;;8.10;92.80;;;;;;5103644;28;20687;-54
2021/01/23 11:26:00;;;;;;;7.83;6.67;;;8.10;92.70;;;;;;5082662;28;20719;-54
2021/01/23 11:28:27;;;;;;;6.67;6.00;;;8.10;92.60;;;;;;5096734;28;20661;-53
2021/01/23 11:30:53;;;;;;;6.13;5.60;;;8.10;92.50;;;;;;5089427;28;20663;-54
2021/01/23 11:33:21;;;;;;;5.77;4.77;;;8.10;92.50;;;;;;5089546;28;20766;-54
2021/01/23 11:35:48;;;;;;;5.10;4.73;;;8.10;92.50;;;;;;5090188;28;20671;-54
2021/01/23 11:38:15;;;;;;;5.93;5.43;;;8.20;92.50;;;;;;5094118;28;20692;-52
2021/01/23 11:40:42;;;;;;;6.80;6.30;;;8.30;92.30;;;;;;5100114;28;20654;-54
2021/01/23 11:43:10;;;;;;;6.70;6.03;;;8.20;92.10;;;;;;5094775;28;20619;-53
2021/01/23 11:45:36;;;;;;;6.23;5.53;;;8.20;92.00;;;;;;5112920;28;20698;-53
2021/01/23 11:48:03;;;;;;;5.60;5.10;;;8.20;92.00;;;;;;5111950;28;21203;-52
2021/01/23 11:50:30;;;;;;;7.17;6.47;;;8.20;91.90;;;;;;5108374;28;20673;-53
2021/01/23 11:52:57;;;;;;;6.77;5.23;;;8.20;92.00;;;;;;5112335;28;20782;-54
2021/01/23 11:55:24;;;;;;;6.90;5.90;;;8.20;92.00;;;;;;5112915;28;20655;-53
2021/01/23 11:57:51;;;;;;;7.00;6.30;;;8.20;92.00;;;;;;5111856;28;20643;-53
2021/01/23 12:00:19;;;;;;;6.43;5.90;;;8.20;92.30;;;;;;5113217;28;20657;-53
2021/01/23 12:02:46;;;;;;;9.53;7.30;;;8.20;92.20;;;;;;5113146;28;20961;-53
2021/01/23 12:05:18;;;;;;;7.43;5.93;;;8.20;92.40;;;;;;5107557;28;20695;-53
2021/01/23 12:07:46;;;;;;;6.70;5.90;;;8.20;92.20;;;;;;5093137;28;20687;-53
2021/01/23 12:10:14;;;;;;;6.97;6.37;;;8.20;92.30;;;;;;5093937;28;20638;-53
2021/01/23 12:12:40;;;;;;;5.23;4.73;;;8.20;92.20;;;;;;5092344;28;21209;-53
2021/01/23 12:15:08;;;;;;;6.00;5.40;;;8.20;92.00;;;;;;5111669;28;21041;-53
2021/01/23 12:17:36;;;;;;;6.80;5.67;;;8.30;92.00;;;;;;5112662;28;20630;-53
2021/01/23 12:20:03;;;;;;;6.10;5.43;;;8.30;91.80;;;;;;5111845;28;20671;-53
2021/01/23 12:22:30;;;;;;;8.53;5.80;;;8.30;91.80;;;;;;5112276;28;20661;-53
2021/01/23 12:24:57;;;;;;;7.33;4.80;;;8.40;91.70;;;;;;5105089;28;20680;-54
2021/01/23 12:27:24;;;;;;;5.83;5.33;;;8.40;91.60;;;;;;5092296;28;20703;-53
2021/01/23 12:29:50;;;;;;;4.93;4.17;;;8.50;91.70;;;;;;5096254;28;20666;-52
2021/01/23 12:32:17;;;;;;;6.27;5.50;;;8.50;91.20;;;;;;5092466;28;20662;-53
2021/01/23 12:34:45;;;;;;;6.07;5.50;;;8.50;91.10;;;;;;5092403;28;20635;-54
2021/01/23 12:37:12;;;;;;;5.97;5.47;;;8.50;91.00;;;;;;5091977;28;21030;-53
2021/01/23 12:39:38;;;;;;;5.27;4.50;;;8.50;91.10;;;;;;5110093;28;20650;-55
2021/01/23 12:42:06;;;;;;;11.30;5.87;;;8.60;91.30;;;;;;5110658;28;20658;-53
2021/01/23 12:44:33;;;;;;;4.50;4.10;;;8.60;91.10;;;;;;5112025;28;20716;-53
2021/01/23 12:47:00;;;;;;;5.83;5.30;;;8.70;91.20;;;;;;5111599;28;20691;-53
2021/01/23 12:49:26;;;;;;;5.27;4.87;;;8.70;91.10;;;;;;5111289;28;21167;-52
2021/01/23 12:51:54;;;;;;;6.60;5.03;;;8.70;90.90;;;;;;5105909;28;21142;-52
2021/01/23 12:54:21;;;;;;;4.83;3.93;;;8.70;91.00;;;;;;5112320;28;20658;-52